sensor_id;sensor_type;location;lat;lon;timestamp;pressure;altitude;pressure_sealevel;temperature;humidity
52511;BME280;63918;51.700;17.998;2022-10-16T00:01:31;99928.27;;;12.96;100.00
52511;BME280;63918;51.700;17.998;2022-10-16T00:03:59;99931.93;;;13.03;100.00
52511;BME280;63918;51.700;17.998;2022-10-16T00:06:27;99927.10;;;13.06;100.00
52511;BME280;63918;51.700;17.998;2022-10-16T00:08:55;99920.04;;;13.06;100.00
52511;BME280;63918;51.700;17.998;2022-10-16T00:11:24;99923.79;;;13.07;100.00
52511;BME280;63918;51.700;17.998;2022-10-16T00:13:55;99924.42;;;13.06;100.00
52511;BME280;63918;51.700;17.998;2022-10-16T00:16:22;99925.01;;;13.09;100.00
52511;BME280;63918;51.700;17.998;2022-10-16T00:18:49;99926.80;;;13.18;100.00
52511;BME280;63918;51.700;17.998;2022-10-16T00:21:24;99927.01;;;13.21;100.00
52511;BME280;63918;51.700;17.998;2022-10-16T00:24:00;99931.77;;;13.26;100.00
52511;BME280;63918;51.700;17.998;2022-10-16T00:26:28;99925.88;;;13.31;100.00
52511;BME280;63918;51.700;17.998;2022-10-16T00:28:55;99925.49;;;13.31;100.00
52511;BME280;63918;51.700;17.998;2022-10-16T00:31:22;99931.48;;;13.33;100.00
52511;BME280;63918;51.700;17.998;2022-10-16T00:33:49;99929.30;;;13.33;100.00
52511;BME280;63918;51.700;17.998;2022-10-16T00:36:21;99930.47;;;13.36;100.00
52511;BME280;63918;51.700;17.998;2022-10-16T00:38:55;99931.73;;;13.35;100.00
52511;BME280;63918;51.700;17.998;2022-10-16T00:41:24;99931.73;;;13.35;100.00
52511;BME280;63918;51.700;17.998;2022-10-16T00:44:02;99928.30;;;13.43;100.00
52511;BME280;63918;51.700;17.998;2022-10-16T00:46:37;99926.38;;;13.38;100.00
52511;BME280;63918;51.700;17.998;2022-10-16T00:49:12;99923.78;;;13.42;100.00
52511;BME280;63918;51.700;17.998;2022-10-16T00:51:42;99924.77;;;13.40;100.00
52511;BME280;63918;51.700;17.998;2022-10-16T00:54:14;99927.27;;;13.40;100.00
52511;BME280;63918;51.700;17.998;2022-10-16T00:56:43;99925.45;;;13.38;100.00
52511;BME280;63918;51.700;17.998;2022-10-16T00:59:18;99922.34;;;13.36;100.00
52511;BME280;63918;51.700;17.998;2022-10-16T01:01:45;99917.73;;;13.29;100.00
52511;BME280;63918;51.700;17.998;2022-10-16T01:04:12;99917.22;;;13.25;100.00
52511;BME280;63918;51.700;17.998;2022-10-16T01:06:59;99921.65;;;13.24;100.00
52511;BME280;63918;51.700;17.998;2022-10-16T01:12:15;99923.28;;;13.06;100.00
52511;BME280;63918;51.700;17.998;2022-10-16T01:14:56;99922.69;;;13.00;100.00
52511;BME280;63918;51.700;17.998;2022-10-16T01:17:35;99923.44;;;12.89;100.00
52511;BME280;63918;51.700;17.998;2022-10-16T01:20:07;99927.47;;;12.84;100.00
52511;BME280;63918;51.700;17.998;2022-10-16T01:22:43;99926.06;;;12.83;100.00
52511;BME280;63918;51.700;17.998;2022-10-16T01:25:18;99926.15;;;12.88;100.00
52511;BME280;63918;51.700;17.998;2022-10-16T01:27:50;99927.80;;;12.89;100.00
52511;BME280;63918;51.700;17.998;2022-10-16T01:30:20;99925.06;;;12.93;100.00
52511;BME280;63918;51.700;17.998;2022-10-16T01:32:56;99931.93;;;12.90;100.00
52511;BME280;63918;51.700;17.998;2022-10-16T01:35:32;99933.73;;;12.96;100.00
52511;BME280;63918;51.700;17.998;2022-10-16T01:38:03;99933.80;;;13.09;100.00
52511;BME280;63918;51.700;17.998;2022-10-16T01:40:33;99935.96;;;13.20;100.00
52511;BME280;63918;51.700;17.998;2022-10-16T01:43:04;99936.93;;;13.21;100.00
52511;BME280;63918;51.700;17.998;2022-10-16T01:45:32;99940.81;;;13.21;100.00
52511;BME280;63918;51.700;17.998;2022-10-16T01:48:00;99942.85;;;13.20;100.00
52511;BME280;63918;51.700;17.998;2022-10-16T01:50:33;99948.37;;;13.33;100.00
52511;BME280;63918;51.700;17.998;2022-10-16T01:53:02;99947.67;;;13.37;100.00
52511;BME280;63918;51.700;17.998;2022-10-16T01:55:34;99950.26;;;13.47;100.00
52511;BME280;63918;51.700;17.998;2022-10-16T01:58:04;99954.95;;;13.47;100.00
52511;BME280;63918;51.700;17.998;2022-10-16T02:00:33;99956.27;;;13.51;100.00
52511;BME280;63918;51.700;17.998;2022-10-16T02:03:03;99956.30;;;13.42;100.00
52511;BME280;63918;51.700;17.998;2022-10-16T02:05:38;99958.15;;;13.29;100.00
52511;BME280;63918;51.700;17.998;2022-10-16T02:08:07;99951.53;;;13.25;100.00
52511;BME280;63918;51.700;17.998;2022-10-16T02:10:34;99946.42;;;13.21;100.00
52511;BME280;63918;51.700;17.998;2022-10-16T02:13:23;99956.73;;;13.06;100.00
52511;BME280;63918;51.700;17.998;2022-10-16T02:15:52;99954.02;;;13.04;100.00
52511;BME280;63918;51.700;17.998;2022-10-16T02:18:19;99956.41;;;13.09;100.00
52511;BME280;63918;51.700;17.998;2022-10-16T02:20:59;99963.80;;;13.10;100.00
52511;BME280;63918;51.700;17.998;2022-10-16T02:23:49;99962.27;;;13.20;100.00
52511;BME280;63918;51.700;17.998;2022-10-16T02:26:26;99963.05;;;13.21;100.00
52511;BME280;63918;51.700;17.998;2022-10-16T02:29:00;99960.16;;;13.22;100.00
52511;BME280;63918;51.700;17.998;2022-10-16T02:31:33;99967.05;;;13.20;100.00
52511;BME280;63918;51.700;17.998;2022-10-16T02:34:02;99966.70;;;13.17;100.00
52511;BME280;63918;51.700;17.998;2022-10-16T02:36:32;99963.79;;;13.26;100.00
52511;BME280;63918;51.700;17.998;2022-10-16T02:39:00;99969.68;;;13.25;100.00
52511;BME280;63918;51.700;17.998;2022-10-16T02:41:27;99975.38;;;13.27;100.00
52511;BME280;63918;51.700;17.998;2022-10-16T02:43:54;99969.60;;;13.28;100.00
52511;BME280;63918;51.700;17.998;2022-10-16T02:46:21;99976.45;;;13.22;100.00
52511;BME280;63918;51.700;17.998;2022-10-16T02:48:47;99970.59;;;13.18;100.00
52511;BME280;63918;51.700;17.998;2022-10-16T02:51:14;99979.10;;;13.12;100.00
52511;BME280;63918;51.700;17.998;2022-10-16T02:53:40;99979.40;;;13.10;100.00
52511;BME280;63918;51.700;17.998;2022-10-16T02:56:07;99982.55;;;13.12;100.00
52511;BME280;63918;51.700;17.998;2022-10-16T02:58:33;99986.63;;;13.21;100.00
52511;BME280;63918;51.700;17.998;2022-10-16T03:01:00;99990.66;;;13.21;100.00
52511;BME280;63918;51.700;17.998;2022-10-16T03:03:26;99992.63;;;13.18;100.00
52511;BME280;63918;51.700;17.998;2022-10-16T03:05:52;99995.09;;;13.20;100.00
52511;BME280;63918;51.700;17.998;2022-10-16T03:08:19;99991.23;;;13.20;100.00
52511;BME280;63918;51.700;17.998;2022-10-16T03:10:50;99990.56;;;13.14;100.00
52511;BME280;63918;51.700;17.998;2022-10-16T03:13:16;99987.61;;;13.12;100.00
52511;BME280;63918;51.700;17.998;2022-10-16T03:15:43;99989.73;;;13.15;100.00
52511;BME280;63918;51.700;17.998;2022-10-16T03:18:09;99986.85;;;13.18;100.00
52511;BME280;63918;51.700;17.998;2022-10-16T03:20:36;99982.57;;;13.19;100.00
52511;BME280;63918;51.700;17.998;2022-10-16T03:23:03;99982.73;;;13.25;100.00
52511;BME280;63918;51.700;17.998;2022-10-16T03:25:29;99978.67;;;13.28;100.00
52511;BME280;63918;51.700;17.998;2022-10-16T03:27:56;99975.45;;;13.27;100.00
52511;BME280;63918;51.700;17.998;2022-10-16T03:30:22;99981.08;;;13.20;100.00
52511;BME280;63918;51.700;17.998;2022-10-16T03:32:48;99977.25;;;13.20;100.00
52511;BME280;63918;51.700;17.998;2022-10-16T03:35:21;99976.56;;;13.11;100.00
52511;BME280;63918;51.700;17.998;2022-10-16T03:37:47;99979.89;;;13.01;100.00
52511;BME280;63918;51.700;17.998;2022-10-16T03:40:15;99978.79;;;12.95;100.00
52511;BME280;63918;51.700;17.998;2022-10-16T03:42:43;99981.98;;;12.94;100.00
52511;BME280;63918;51.700;17.998;2022-10-16T03:45:10;99991.23;;;12.98;100.00
52511;BME280;63918;51.700;17.998;2022-10-16T03:47:37;99994.73;;;13.00;100.00
52511;BME280;63918;51.700;17.998;2022-10-16T03:50:04;99992.34;;;13.04;100.00
52511;BME280;63918;51.700;17.998;2022-10-16T03:52:30;99995.91;;;12.95;100.00
52511;BME280;63918;51.700;17.998;2022-10-16T03:54:58;99994.95;;;12.97;100.00
52511;BME280;63918;51.700;17.998;2022-10-16T03:57:24;99997.15;;;12.95;100.00
52511;BME280;63918;51.700;17.998;2022-10-16T03:59:51;99997.88;;;12.95;100.00
52511;BME280;63918;51.700;17.998;2022-10-16T04:02:17;100002.70;;;12.99;100.00
52511;BME280;63918;51.700;17.998;2022-10-16T04:04:44;100003.12;;;13.01;100.00
52511;BME280;63918;51.700;17.998;2022-10-16T04:07:10;100007.73;;;12.96;100.00
52511;BME280;63918;51.700;17.998;2022-10-16T04:09:36;100010.94;;;13.00;100.00
52511;BME280;63918;51.700;17.998;2022-10-16T04:12:03;100021.19;;;13.04;100.00
52511;BME280;63918;51.700;17.998;2022-10-16T04:14:29;100024.40;;;13.08;100.00
52511;BME280;63918;51.700;17.998;2022-10-16T04:16:56;100028.16;;;13.05;100.00
52511;BME280;63918;51.700;17.998;2022-10-16T04:19:22;100025.30;;;13.03;100.00
52511;BME280;63918;51.700;17.998;2022-10-16T04:21:49;100025.48;;;13.06;100.00
52511;BME280;63918;51.700;17.998;2022-10-16T04:24:15;100021.95;;;12.99;100.00
52511;BME280;63918;51.700;17.998;2022-10-16T04:26:42;100018.35;;;12.96;100.00
52511;BME280;63918;51.700;17.998;2022-10-16T04:29:08;100025.46;;;12.95;100.00
52511;BME280;63918;51.700;17.998;2022-10-16T04:31:34;100027.97;;;12.98;100.00
52511;BME280;63918;51.700;17.998;2022-10-16T04:34:01;100023.76;;;12.99;100.00
52511;BME280;63918;51.700;17.998;2022-10-16T04:36:27;100020.90;;;13.01;100.00
52511;BME280;63918;51.700;17.998;2022-10-16T04:38:54;100027.55;;;13.00;100.00
52511;BME280;63918;51.700;17.998;2022-10-16T04:41:20;100024.52;;;12.93;100.00
52511;BME280;63918;51.700;17.998;2022-10-16T04:43:47;100030.83;;;12.91;100.00
52511;BME280;63918;51.700;17.998;2022-10-16T04:46:13;100031.67;;;12.93;100.00
52511;BME280;63918;51.700;17.998;2022-10-16T04:48:40;100036.18;;;12.91;100.00
52511;BME280;63918;51.700;17.998;2022-10-16T04:51:06;100038.70;;;12.89;100.00
52511;BME280;63918;51.700;17.998;2022-10-16T04:53:35;100038.30;;;12.88;100.00
52511;BME280;63918;51.700;17.998;2022-10-16T04:56:02;100044.48;;;12.85;100.00
52511;BME280;63918;51.700;17.998;2022-10-16T04:58:28;100042.27;;;12.78;100.00
52511;BME280;63918;51.700;17.998;2022-10-16T05:00:55;100046.91;;;12.68;100.00
52511;BME280;63918;51.700;17.998;2022-10-16T05:03:21;100048.30;;;12.65;100.00
52511;BME280;63918;51.700;17.998;2022-10-16T05:05:47;100046.09;;;12.67;100.00
52511;BME280;63918;51.700;17.998;2022-10-16T05:08:16;100042.29;;;12.73;100.00
52511;BME280;63918;51.700;17.998;2022-10-16T05:10:44;100033.83;;;12.68;100.00
52511;BME280;63918;51.700;17.998;2022-10-16T05:13:11;100033.10;;;12.66;100.00
52511;BME280;63918;51.700;17.998;2022-10-16T05:15:38;100041.58;;;12.67;100.00
52511;BME280;63918;51.700;17.998;2022-10-16T05:18:04;100044.12;;;12.75;100.00
52511;BME280;63918;51.700;17.998;2022-10-16T05:20:31;100043.47;;;12.78;100.00
52511;BME280;63918;51.700;17.998;2022-10-16T05:22:57;100041.65;;;12.80;100.00
52511;BME280;63918;51.700;17.998;2022-10-16T05:25:27;100042.96;;;12.79;100.00
52511;BME280;63918;51.700;17.998;2022-10-16T05:27:56;100046.73;;;12.82;100.00
52511;BME280;63918;51.700;17.998;2022-10-16T05:30:23;100052.92;;;12.80;100.00
52511;BME280;63918;51.700;17.998;2022-10-16T05:32:50;100057.90;;;12.69;100.00
52511;BME280;63918;51.700;17.998;2022-10-16T05:35:18;100058.46;;;12.64;100.00
52511;BME280;63918;51.700;17.998;2022-10-16T05:37:45;100054.67;;;12.58;100.00
52511;BME280;63918;51.700;17.998;2022-10-16T05:40:12;100060.90;;;12.66;100.00
52511;BME280;63918;51.700;17.998;2022-10-16T05:42:39;100067.86;;;12.73;100.00
52511;BME280;63918;51.700;17.998;2022-10-16T05:45:07;100073.69;;;12.87;100.00
52511;BME280;63918;51.700;17.998;2022-10-16T05:47:35;100075.52;;;12.95;100.00
52511;BME280;63918;51.700;17.998;2022-10-16T05:50:02;100076.86;;;13.01;100.00
52511;BME280;63918;51.700;17.998;2022-10-16T05:52:30;100078.05;;;13.12;100.00
52511;BME280;63918;51.700;17.998;2022-10-16T05:54:56;100079.38;;;13.23;100.00
52511;BME280;63918;51.700;17.998;2022-10-16T05:57:23;100085.20;;;13.24;100.00
52511;BME280;63918;51.700;17.998;2022-10-16T05:59:49;100081.81;;;13.25;100.00
52511;BME280;63918;51.700;17.998;2022-10-16T06:02:16;100083.05;;;13.20;100.00
52511;BME280;63918;51.700;17.998;2022-10-16T06:04:42;100076.51;;;13.12;100.00
52511;BME280;63918;51.700;17.998;2022-10-16T06:07:09;100064.77;;;13.13;100.00
52511;BME280;63918;51.700;17.998;2022-10-16T06:09:35;100073.67;;;13.15;100.00
52511;BME280;63918;51.700;17.998;2022-10-16T06:12:01;100079.34;;;13.14;100.00
52511;BME280;63918;51.700;17.998;2022-10-16T06:14:28;100080.56;;;13.27;100.00
52511;BME280;63918;51.700;17.998;2022-10-16T06:16:55;100083.06;;;13.37;100.00
52511;BME280;63918;51.700;17.998;2022-10-16T06:19:21;100085.14;;;13.60;100.00
52511;BME280;63918;51.700;17.998;2022-10-16T06:21:49;100088.79;;;13.99;100.00
52511;BME280;63918;51.700;17.998;2022-10-16T06:24:15;100093.26;;;13.99;100.00
52511;BME280;63918;51.700;17.998;2022-10-16T06:26:41;100100.00;;;14.17;100.00
52511;BME280;63918;51.700;17.998;2022-10-16T06:29:08;100108.98;;;14.38;100.00
52511;BME280;63918;51.700;17.998;2022-10-16T06:31:34;100107.89;;;14.24;100.00
52511;BME280;63918;51.700;17.998;2022-10-16T06:34:01;100106.21;;;14.24;100.00
52511;BME280;63918;51.700;17.998;2022-10-16T06:36:28;100108.92;;;14.30;100.00
52511;BME280;63918;51.700;17.998;2022-10-16T06:38:54;100109.66;;;14.49;100.00
52511;BME280;63918;51.700;17.998;2022-10-16T06:41:22;100115.16;;;15.26;98.15
52511;BME280;63918;51.700;17.998;2022-10-16T06:43:49;100116.77;;;15.31;97.22
52511;BME280;63918;51.700;17.998;2022-10-16T06:46:18;100119.30;;;15.65;95.22
52511;BME280;63918;51.700;17.998;2022-10-16T06:48:45;100119.73;;;15.42;95.38
52511;BME280;63918;51.700;17.998;2022-10-16T06:51:13;100126.11;;;15.15;98.04
52511;BME280;63918;51.700;17.998;2022-10-16T06:53:42;100124.41;;;14.85;100.00
52511;BME280;63918;51.700;17.998;2022-10-16T06:56:11;100127.34;;;14.46;100.00
52511;BME280;63918;51.700;17.998;2022-10-16T06:58:38;100132.00;;;14.48;100.00
52511;BME280;63918;51.700;17.998;2022-10-16T07:01:06;100140.20;;;14.50;100.00
52511;BME280;63918;51.700;17.998;2022-10-16T07:03:33;100142.71;;;14.57;100.00
52511;BME280;63918;51.700;17.998;2022-10-16T07:06:03;100136.33;;;14.76;100.00
52511;BME280;63918;51.700;17.998;2022-10-16T07:08:34;100135.34;;;14.76;100.00
52511;BME280;63918;51.700;17.998;2022-10-16T07:11:04;100141.65;;;14.73;100.00
52511;BME280;63918;51.700;17.998;2022-10-16T07:13:35;100139.96;;;14.73;100.00
52511;BME280;63918;51.700;17.998;2022-10-16T07:16:17;100143.02;;;14.87;100.00
52511;BME280;63918;51.700;17.998;2022-10-16T07:18:44;100145.34;;;14.84;100.00
52511;BME280;63918;51.700;17.998;2022-10-16T07:21:15;100150.21;;;14.86;100.00
52511;BME280;63918;51.700;17.998;2022-10-16T07:23:42;100147.61;;;14.90;100.00
52511;BME280;63918;51.700;17.998;2022-10-16T07:26:09;100154.05;;;15.00;100.00
52511;BME280;63918;51.700;17.998;2022-10-16T07:28:37;100157.31;;;15.07;100.00
52511;BME280;63918;51.700;17.998;2022-10-16T07:31:09;100169.45;;;15.01;100.00
52511;BME280;63918;51.700;17.998;2022-10-16T07:33:38;100177.23;;;15.00;100.00
52511;BME280;63918;51.700;17.998;2022-10-16T07:36:05;100178.44;;;14.97;100.00
52511;BME280;63918;51.700;17.998;2022-10-16T07:38:32;100177.45;;;15.02;100.00
52511;BME280;63918;51.700;17.998;2022-10-16T07:41:05;100173.27;;;15.16;100.00
52511;BME280;63918;51.700;17.998;2022-10-16T07:43:33;100176.20;;;15.23;99.99
52511;BME280;63918;51.700;17.998;2022-10-16T07:46:00;100179.58;;;15.43;99.96
52511;BME280;63918;51.700;17.998;2022-10-16T07:48:28;100184.70;;;15.46;99.08
52511;BME280;63918;51.700;17.998;2022-10-16T07:51:00;100190.60;;;15.70;98.25
52511;BME280;63918;51.700;17.998;2022-10-16T07:53:27;100189.64;;;15.73;96.54
52511;BME280;63918;51.700;17.998;2022-10-16T07:56:02;100193.48;;;15.77;96.35
52511;BME280;63918;51.700;17.998;2022-10-16T07:58:30;100189.88;;;16.03;95.20
52511;BME280;63918;51.700;17.998;2022-10-16T08:00:57;100187.98;;;16.42;92.05
52511;BME280;63918;51.700;17.998;2022-10-16T08:03:24;100189.23;;;16.23;93.51
52511;BME280;63918;51.700;17.998;2022-10-16T08:05:53;100188.17;;;16.29;93.68
52511;BME280;63918;51.700;17.998;2022-10-16T08:08:20;100183.48;;;16.98;90.74
52511;BME280;63918;51.700;17.998;2022-10-16T08:10:47;100179.46;;;17.09;88.08
52511;BME280;63918;51.700;17.998;2022-10-16T08:13:13;100180.45;;;17.28;86.44
52511;BME280;63918;51.700;17.998;2022-10-16T08:15:42;100185.06;;;18.22;83.19
52511;BME280;63918;51.700;17.998;2022-10-16T08:18:10;100182.38;;;17.65;84.03
52511;BME280;63918;51.700;17.998;2022-10-16T08:20:37;100180.67;;;18.02;83.58
52511;BME280;63918;51.700;17.998;2022-10-16T08:23:04;100179.30;;;18.79;79.32
52511;BME280;63918;51.700;17.998;2022-10-16T08:25:30;100183.21;;;18.71;79.28
52511;BME280;63918;51.700;17.998;2022-10-16T08:27:57;100186.23;;;18.73;79.47
52511;BME280;63918;51.700;17.998;2022-10-16T08:30:24;100189.68;;;18.40;81.65
52511;BME280;63918;51.700;17.998;2022-10-16T08:32:51;100191.10;;;19.10;77.10
52511;BME280;63918;51.700;17.998;2022-10-16T08:35:17;100184.06;;;19.29;75.97
52511;BME280;63918;51.700;17.998;2022-10-16T08:37:44;100186.89;;;18.74;77.95
52511;BME280;63918;51.700;17.998;2022-10-16T08:40:18;100185.16;;;18.77;78.07
52511;BME280;63918;51.700;17.998;2022-10-16T08:42:57;100183.89;;;18.58;78.49
52511;BME280;63918;51.700;17.998;2022-10-16T08:51:07;100194.90;;;19.64;74.54
52511;BME280;63918;51.700;17.998;2022-10-16T08:53:43;100190.60;;;19.38;74.67
52511;BME280;63918;51.700;17.998;2022-10-16T08:56:10;100191.84;;;19.60;74.13
52511;BME280;63918;51.700;17.998;2022-10-16T08:58:37;100185.92;;;19.67;74.30
52511;BME280;63918;51.700;17.998;2022-10-16T09:01:11;100193.83;;;19.57;75.06
52511;BME280;63918;51.700;17.998;2022-10-16T09:03:51;100189.08;;;19.30;75.69
52511;BME280;63918;51.700;17.998;2022-10-16T09:06:24;100189.33;;;18.74;78.89
52511;BME280;63918;51.700;17.998;2022-10-16T09:11:51;100196.89;;;19.14;76.86
52511;BME280;63918;51.700;17.998;2022-10-16T09:15:00;100202.96;;;19.13;77.28
52511;BME280;63918;51.700;17.998;2022-10-16T09:17:37;100205.58;;;19.57;74.69
52511;BME280;63918;51.700;17.998;2022-10-16T09:23:15;100195.14;;;20.76;70.07
52511;BME280;63918;51.700;17.998;2022-10-16T09:25:45;100204.10;;;21.19;68.94
52511;BME280;63918;51.700;17.998;2022-10-16T09:28:14;100210.94;;;20.99;69.43
52511;BME280;63918;51.700;17.998;2022-10-16T09:30:40;100214.13;;;21.71;66.85
52511;BME280;63918;51.700;17.998;2022-10-16T09:33:09;100217.52;;;20.92;69.18
52511;BME280;63918;51.700;17.998;2022-10-16T09:35:40;100220.13;;;20.77;70.63
52511;BME280;63918;51.700;17.998;2022-10-16T09:38:08;100209.97;;;21.59;67.30
52511;BME280;63918;51.700;17.998;2022-10-16T09:40:37;100215.31;;;21.59;67.32
52511;BME280;63918;51.700;17.998;2022-10-16T09:43:34;100213.91;;;20.88;69.02
52511;BME280;63918;51.700;17.998;2022-10-16T09:46:19;100217.61;;;20.46;71.37
52511;BME280;63918;51.700;17.998;2022-10-16T09:48:49;100214.91;;;20.52;71.53
52511;BME280;63918;51.700;17.998;2022-10-16T09:51:21;100217.72;;;20.44;71.78
52511;BME280;63918;51.700;17.998;2022-10-16T09:53:49;100216.83;;;20.53;71.47
52511;BME280;63918;51.700;17.998;2022-10-16T09:56:38;100211.44;;;20.49;71.75
52511;BME280;63918;51.700;17.998;2022-10-16T09:59:15;100211.99;;;20.72;71.25
52511;BME280;63918;51.700;17.998;2022-10-16T10:01:53;100211.25;;;21.41;69.23
52511;BME280;63918;51.700;17.998;2022-10-16T10:04:21;100210.95;;;22.25;65.97
52511;BME280;63918;51.700;17.998;2022-10-16T10:06:51;100212.36;;;21.30;67.97
52511;BME280;63918;51.700;17.998;2022-10-16T10:09:48;100207.58;;;20.87;69.62
52511;BME280;63918;51.700;17.998;2022-10-16T10:12:26;100207.67;;;20.70;70.86
52511;BME280;63918;51.700;17.998;2022-10-16T10:14:55;100214.38;;;20.63;69.96
52511;BME280;63918;51.700;17.998;2022-10-16T10:17:24;100222.47;;;20.77;69.86
52511;BME280;63918;51.700;17.998;2022-10-16T10:19:54;100232.52;;;20.17;72.16
52511;BME280;63918;51.700;17.998;2022-10-16T10:22:44;100232.75;;;19.36;75.70
52511;BME280;63918;51.700;17.998;2022-10-16T10:28:09;100228.20;;;19.06;77.48
52511;BME280;63918;51.700;17.998;2022-10-16T10:36:11;100222.48;;;19.63;75.40
52511;BME280;63918;51.700;17.998;2022-10-16T10:39:12;100221.80;;;19.53;75.45
52511;BME280;63918;51.700;17.998;2022-10-16T10:41:59;100218.17;;;19.81;74.28
52511;BME280;63918;51.700;17.998;2022-10-16T10:44:54;100224.77;;;20.34;72.51
52511;BME280;63918;51.700;17.998;2022-10-16T10:50:20;100223.36;;;21.17;69.75
52511;BME280;63918;51.700;17.998;2022-10-16T10:53:01;100225.24;;;21.32;67.86
52511;BME280;63918;51.700;17.998;2022-10-16T10:58:29;100229.45;;;20.49;71.50
52511;BME280;63918;51.700;17.998;2022-10-16T11:01:14;100227.02;;;21.18;68.64
52511;BME280;63918;51.700;17.998;2022-10-16T11:06:48;100241.15;;;20.71;70.27
52511;BME280;63918;51.700;17.998;2022-10-16T11:09:43;100233.48;;;21.25;69.09
52511;BME280;63918;51.700;17.998;2022-10-16T11:12:19;100237.02;;;22.76;64.54
52511;BME280;63918;51.700;17.998;2022-10-16T11:15:04;100238.76;;;24.56;57.89
52511;BME280;63918;51.700;17.998;2022-10-16T11:17:43;100236.89;;;22.88;62.09
52511;BME280;63918;51.700;17.998;2022-10-16T11:20:46;100227.88;;;22.25;64.44
52511;BME280;63918;51.700;17.998;2022-10-16T11:25:45;100222.27;;;21.44;66.92
52511;BME280;63918;51.700;17.998;2022-10-16T11:28:20;100224.47;;;20.79;69.53
52511;BME280;63918;51.700;17.998;2022-10-16T11:31:05;100226.81;;;21.01;68.97
52511;BME280;63918;51.700;17.998;2022-10-16T11:33:39;100226.08;;;21.33;68.13
52511;BME280;63918;51.700;17.998;2022-10-16T11:36:31;100224.20;;;21.83;67.23
52511;BME280;63918;51.700;17.998;2022-10-16T11:39:18;100229.83;;;21.61;66.72
52511;BME280;63918;51.700;17.998;2022-10-16T11:41:50;100223.77;;;20.68;70.77
52511;BME280;63918;51.700;17.998;2022-10-16T11:44:43;100222.70;;;20.64;71.66
52511;BME280;63918;51.700;17.998;2022-10-16T11:50:06;100211.74;;;20.04;74.65
52511;BME280;63918;51.700;17.998;2022-10-16T11:55:24;100212.08;;;19.91;74.77
52511;BME280;63918;51.700;17.998;2022-10-16T11:58:21;100214.77;;;19.94;74.71
52511;BME280;63918;51.700;17.998;2022-10-16T12:03:46;100213.57;;;20.18;73.35
52511;BME280;63918;51.700;17.998;2022-10-16T12:09:02;100219.20;;;20.62;71.67
52511;BME280;63918;51.700;17.998;2022-10-16T12:14:16;100211.79;;;21.49;69.12
52511;BME280;63918;51.700;17.998;2022-10-16T12:16:57;100211.91;;;23.35;62.93
52511;BME280;63918;51.700;17.998;2022-10-16T12:19:28;100206.29;;;22.69;63.93
52511;BME280;63918;51.700;17.998;2022-10-16T12:22:01;100195.83;;;21.88;66.71
52511;BME280;63918;51.700;17.998;2022-10-16T12:24:35;100191.24;;;22.03;66.85
52511;BME280;63918;51.700;17.998;2022-10-16T12:27:05;100190.16;;;21.86;67.41
52511;BME280;63918;51.700;17.998;2022-10-16T12:29:36;100198.12;;;21.20;68.28
52511;BME280;63918;51.700;17.998;2022-10-16T12:32:28;100205.25;;;20.55;71.05
52511;BME280;63918;51.700;17.998;2022-10-16T12:34:55;100207.15;;;20.68;71.44
52511;BME280;63918;51.700;17.998;2022-10-16T12:37:37;100214.48;;;20.68;71.60
52511;BME280;63918;51.700;17.998;2022-10-16T12:40:29;100222.52;;;20.46;71.84
52511;BME280;63918;51.700;17.998;2022-10-16T12:42:57;100216.13;;;20.43;72.62
52511;BME280;63918;51.700;17.998;2022-10-16T12:45:28;100213.65;;;20.54;72.20
52511;BME280;63918;51.700;17.998;2022-10-16T12:47:55;100219.14;;;20.54;72.50
52511;BME280;63918;51.700;17.998;2022-10-16T12:52:58;100221.69;;;20.61;72.12
52511;BME280;63918;51.700;17.998;2022-10-16T12:55:26;100223.20;;;20.64;72.14
52511;BME280;63918;51.700;17.998;2022-10-16T12:58:09;100225.05;;;21.00;72.01
52511;BME280;63918;51.700;17.998;2022-10-16T13:00:57;100233.00;;;20.80;70.95
52511;BME280;63918;51.700;17.998;2022-10-16T13:06:39;100247.20;;;20.92;69.38
52511;BME280;63918;51.700;17.998;2022-10-16T13:09:15;100250.99;;;20.92;69.61
52511;BME280;63918;51.700;17.998;2022-10-16T13:22:18;100271.98;;;21.61;68.88
52511;BME280;63918;51.700;17.998;2022-10-16T13:27:56;100276.23;;;21.23;70.82
52511;BME280;63918;51.700;17.998;2022-10-16T13:30:25;100276.43;;;21.27;71.72
52511;BME280;63918;51.700;17.998;2022-10-16T13:33:06;100271.84;;;20.83;72.17
52511;BME280;63918;51.700;17.998;2022-10-16T13:35:35;100276.55;;;20.63;73.73
52511;BME280;63918;51.700;17.998;2022-10-16T13:40:58;100269.80;;;20.78;73.90
52511;BME280;63918;51.700;17.998;2022-10-16T13:43:28;100270.86;;;20.44;74.39
52511;BME280;63918;51.700;17.998;2022-10-16T13:46:00;100272.90;;;20.44;74.72
52511;BME280;63918;51.700;17.998;2022-10-16T13:48:29;100277.05;;;20.31;74.75
52511;BME280;63918;51.700;17.998;2022-10-16T13:53:33;100281.18;;;20.09;76.31
52511;BME280;63918;51.700;17.998;2022-10-16T13:56:04;100279.77;;;20.11;76.15
52511;BME280;63918;51.700;17.998;2022-10-16T13:58:31;100284.36;;;20.09;76.67
52511;BME280;63918;51.700;17.998;2022-10-16T14:01:03;100286.13;;;20.08;76.92
52511;BME280;63918;51.700;17.998;2022-10-16T14:03:32;100287.90;;;20.16;76.91
52511;BME280;63918;51.700;17.998;2022-10-16T14:06:01;100288.84;;;20.49;75.38
52511;BME280;63918;51.700;17.998;2022-10-16T14:08:29;100283.27;;;20.49;74.93
52511;BME280;63918;51.700;17.998;2022-10-16T14:10:58;100288.85;;;20.42;75.78